createdAt,value
2023-05-01T00:02:15.464Z,100.00
2023-05-01T00:05:02.143Z,100.00
2023-05-01T00:07:50.787Z,100.00
2023-05-01T00:10:37.924Z,100.00
2023-05-01T00:13:24.706Z,100.00
2023-05-01T00:16:13.322Z,100.00
2023-05-01T00:18:59.732Z,100.00
2023-05-01T00:21:47.068Z,100.00
2023-05-01T00:24:35.289Z,100.00
2023-05-01T00:27:21.847Z,100.00
2023-05-01T00:30:09.706Z,100.00
2023-05-01T00:32:56.601Z,100.00
2023-05-01T00:35:45.208Z,100.00
2023-05-01T00:38:31.724Z,100.00
2023-05-01T00:41:19.967Z,100.00
2023-05-01T00:44:06.711Z,100.00
2023-05-01T00:46:54.729Z,100.00
2023-05-01T00:49:43.415Z,100.00
2023-05-01T00:52:30.008Z,100.00
2023-05-01T00:55:17.486Z,100.00
2023-05-01T00:58:06.262Z,100.00
2023-05-01T01:00:53.373Z,100.00
2023-05-01T01:03:40.497Z,100.00
2023-05-01T01:06:34.581Z,100.00
2023-05-01T01:09:38.820Z,100.00
2023-05-01T01:12:33.072Z,100.00
2023-05-01T01:15:29.415Z,100.00
2023-05-01T01:18:20.533Z,100.00
2023-05-01T01:21:12.817Z,100.00
2023-05-01T01:24:27.876Z,100.00
2023-05-01T01:27:39.955Z,100.00
2023-05-01T01:31:00.110Z,100.00
2023-05-01T01:34:02.529Z,100.00
2023-05-01T01:36:56.837Z,100.00
2023-05-01T01:39:50.655Z,100.00
2023-05-01T01:42:41.927Z,100.00
2023-05-01T01:45:41.063Z,100.00
2023-05-01T01:48:34.214Z,100.00
2023-05-01T01:51:23.627Z,100.00
2023-05-01T01:54:12.593Z,100.00
2023-05-01T01:57:02.712Z,100.00
2023-05-01T01:59:51.348Z,100.00
2023-05-01T02:02:39.692Z,100.00
2023-05-01T02:05:28.356Z,100.00
2023-05-01T02:08:17.772Z,100.00
2023-05-01T02:11:06.299Z,100.00
2023-05-01T02:13:55.866Z,100.00
2023-05-01T02:16:43.654Z,100.00
2023-05-01T02:19:33.262Z,100.00
2023-05-01T02:22:22.587Z,100.00
2023-05-01T02:25:12.642Z,100.00
2023-05-01T02:28:05.636Z,100.00
2023-05-01T02:30:59.650Z,100.00
2023-05-01T02:33:49.524Z,100.00
2023-05-01T02:39:42.213Z,100.00
2023-05-01T02:42:32.354Z,100.00
2023-05-01T02:45:21.623Z,100.00
2023-05-01T02:48:11.147Z,100.00
2023-05-01T02:50:59.396Z,100.00
2023-05-01T02:53:47.410Z,100.00
2023-05-01T02:56:40.165Z,100.00
2023-05-01T02:59:28.238Z,100.00
2023-05-01T03:02:15.918Z,100.00
2023-05-01T03:05:02.304Z,100.00
2023-05-01T03:07:49.260Z,100.00
2023-05-01T03:10:36.396Z,100.00
2023-05-01T03:13:23.255Z,100.00
2023-05-01T03:16:11.330Z,100.00
2023-05-01T03:18:58.055Z,100.00
2023-05-01T03:21:44.926Z,100.00
2023-05-01T03:24:31.536Z,100.00
2023-05-01T03:27:18.321Z,100.00
2023-05-01T03:30:05.865Z,100.00
2023-05-01T03:32:58.848Z,100.00
2023-05-01T03:35:50.212Z,100.00
2023-05-01T03:38:36.994Z,100.00
2023-05-01T03:41:29.710Z,100.00
2023-05-01T03:44:31.261Z,100.00
2023-05-01T03:47:17.838Z,100.00
2023-05-01T03:50:06.962Z,100.00
2023-05-01T03:52:53.948Z,100.00
2023-05-01T03:55:40.794Z,100.00
2023-05-01T03:58:27.636Z,100.00
2023-05-01T04:01:14.508Z,100.00
2023-05-01T04:04:04.155Z,100.00
2023-05-01T04:06:52.250Z,100.00
2023-05-01T04:09:39.004Z,100.00
2023-05-01T04:12:25.972Z,100.00
2023-05-01T04:15:15.316Z,100.00
2023-05-01T04:18:02.832Z,100.00
2023-05-01T04:20:49.469Z,100.00
2023-05-01T04:23:37.514Z,100.00
2023-05-01T04:26:24.323Z,100.00
2023-05-01T04:29:11.217Z,100.00
2023-05-01T04:31:58.241Z,100.00
2023-05-01T04:34:45.090Z,100.00
2023-05-01T04:37:31.644Z,100.00
2023-05-01T04:40:19.710Z,99.07
2023-05-01T04:43:06.253Z,98.66
2023-05-01T04:45:53.066Z,98.75
2023-05-01T04:48:39.707Z,98.90
2023-05-01T04:51:26.467Z,97.33
2023-05-01T04:54:13.368Z,94.67
2023-05-01T04:57:01.468Z,96.88
2023-05-01T04:59:48.368Z,95.17
2023-05-01T05:02:35.308Z,96.19
2023-05-01T05:05:21.968Z,90.42
2023-05-01T05:08:10.412Z,83.09
2023-05-01T05:11:03.599Z,74.37
2023-05-01T05:13:57.228Z,68.41
2023-05-01T05:16:44.561Z,64.10
2023-05-01T05:19:31.345Z,58.93
2023-05-01T05:22:18.288Z,56.00
2023-05-01T05:25:24.041Z,53.07
2023-05-01T05:28:10.680Z,54.87
2023-05-01T05:30:59.392Z,51.25
2023-05-01T05:33:46.996Z,51.30
2023-05-01T05:36:35.643Z,52.27
2023-05-01T05:39:23.704Z,52.19
2023-05-01T05:42:10.758Z,51.46
2023-05-01T05:44:57.553Z,50.23
2023-05-01T05:47:46.117Z,48.67
2023-05-01T05:50:33.299Z,48.84
2023-05-01T05:53:20.228Z,49.88
2023-05-01T05:56:07.932Z,52.31
2023-05-01T05:58:54.859Z,54.90
2023-05-01T06:01:42.796Z,57.36
2023-05-01T06:04:31.039Z,60.23
2023-05-01T06:07:17.619Z,63.72
2023-05-01T06:10:05.708Z,65.87
2023-05-01T06:12:58.116Z,57.81
2023-05-01T06:15:57.887Z,52.19
2023-05-01T06:18:45.823Z,49.59
2023-05-01T06:21:35.162Z,47.42
2023-05-01T06:24:21.943Z,46.59
2023-05-01T06:27:11.312Z,45.45
2023-05-01T06:29:58.238Z,46.45
2023-05-01T06:32:44.845Z,45.79
2023-05-01T06:35:31.910Z,46.74
2023-05-01T06:38:20.324Z,47.41
2023-05-01T06:41:07.266Z,50.00
2023-05-01T06:43:54.100Z,49.12
2023-05-01T06:46:40.919Z,49.75
2023-05-01T06:49:27.660Z,48.96
2023-05-01T06:52:14.620Z,49.96
2023-05-01T06:55:03.889Z,51.22
2023-05-01T06:57:50.599Z,51.82
2023-05-01T07:00:37.433Z,48.33
2023-05-01T07:03:24.242Z,50.64
2023-05-01T07:06:10.983Z,49.68
2023-05-01T07:08:57.620Z,48.68
2023-05-01T07:11:45.940Z,49.10
2023-05-01T07:14:32.888Z,50.15
2023-05-01T07:17:19.645Z,48.78
2023-05-01T07:20:07.851Z,49.53
2023-05-01T07:22:54.489Z,48.73
2023-05-01T07:25:41.460Z,48.06
2023-05-01T07:28:29.245Z,48.64
2023-05-01T07:31:16.290Z,47.72
2023-05-01T07:34:03.844Z,47.46
2023-05-01T07:36:50.278Z,48.06
2023-05-01T07:39:37.184Z,46.35
2023-05-01T07:42:23.993Z,48.54
2023-05-01T07:45:12.839Z,45.28
2023-05-01T07:47:59.794Z,45.50
2023-05-01T07:50:46.634Z,45.63
2023-05-01T07:53:33.353Z,46.93
2023-05-01T07:56:20.118Z,44.89
2023-05-01T07:59:07.080Z,44.21
2023-05-01T08:01:55.253Z,44.02
2023-05-01T08:04:42.914Z,43.69
2023-05-01T08:07:29.559Z,43.75
2023-05-01T08:10:16.726Z,43.86
2023-05-01T08:13:03.248Z,44.06
2023-05-01T08:15:50.227Z,45.26
2023-05-01T08:18:38.094Z,42.41
2023-05-01T08:21:24.651Z,43.46
2023-05-01T08:24:11.973Z,43.65
2023-05-01T08:26:59.473Z,42.39
2023-05-01T08:29:46.331Z,43.25
2023-05-01T08:32:33.670Z,40.77
2023-05-01T08:35:22.156Z,40.92
2023-05-01T08:38:08.928Z,40.08
2023-05-01T08:40:57.011Z,40.98
2023-05-01T08:43:44.466Z,36.84
2023-05-01T08:46:42.686Z,34.46
2023-05-01T08:49:32.713Z,34.50
2023-05-01T08:52:23.402Z,34.49
2023-05-01T08:55:13.674Z,33.52
2023-05-01T08:58:01.267Z,35.10
2023-05-01T09:00:48.668Z,35.40
2023-05-01T09:03:36.460Z,35.82
2023-05-01T09:06:24.414Z,35.64
2023-05-01T09:09:12.561Z,34.82
2023-05-01T09:12:04.637Z,35.70
2023-05-01T09:14:51.904Z,36.30
2023-05-01T09:17:38.867Z,35.93
2023-05-01T09:20:25.753Z,35.76
2023-05-01T09:23:13.018Z,34.08
2023-05-01T09:26:01.769Z,33.49
2023-05-01T09:28:51.488Z,36.14
2023-05-01T09:31:38.505Z,35.96
2023-05-01T09:34:25.118Z,37.52
2023-05-01T09:37:15.664Z,35.63
2023-05-01T09:40:07.757Z,36.18
2023-05-01T09:42:56.547Z,35.09
2023-05-01T09:45:43.856Z,34.88
2023-05-01T09:48:33.303Z,32.96
2023-05-01T09:51:23.082Z,34.04
2023-05-01T09:54:20.062Z,34.00
2023-05-01T09:57:06.634Z,34.60
2023-05-01T10:00:08.668Z,33.37
2023-05-01T10:02:56.792Z,33.26
2023-05-01T10:05:47.022Z,32.04
2023-05-01T10:08:47.530Z,32.82
2023-05-01T10:11:48.923Z,32.50
2023-05-01T10:14:50.265Z,32.42
2023-05-01T10:17:39.792Z,33.25
2023-05-01T10:20:26.804Z,33.38
2023-05-01T10:23:13.855Z,33.39
2023-05-01T10:26:05.150Z,31.48
2023-05-01T10:28:52.738Z,34.80
2023-05-01T10:31:41.478Z,35.29
2023-05-01T10:34:31.754Z,35.87
2023-05-01T10:37:23.314Z,34.68
2023-05-01T10:40:48.384Z,32.88
2023-05-01T10:43:34.787Z,32.05
2023-05-01T10:46:29.875Z,33.60
2023-05-01T10:49:16.994Z,32.20
2023-05-01T10:52:05.153Z,31.88
2023-05-01T10:54:52.042Z,32.82
2023-05-01T10:57:46.178Z,34.68
2023-05-01T11:00:34.420Z,34.65
2023-05-01T11:03:36.679Z,33.37
2023-05-01T11:06:23.438Z,31.57
2023-05-01T11:09:38.871Z,31.06
2023-05-01T11:12:52.898Z,32.48
2023-05-01T11:15:40.721Z,33.44
2023-05-01T11:18:46.780Z,34.10
2023-05-01T11:21:34.303Z,32.18
2023-05-01T11:24:21.289Z,33.09
2023-05-01T11:27:10.010Z,34.45
2023-05-01T11:29:57.439Z,32.23
2023-05-01T11:32:45.483Z,31.32
2023-05-01T11:35:33.304Z,31.99
2023-05-01T11:38:20.161Z,34.18
2023-05-01T11:41:06.775Z,31.93
2023-05-01T11:43:56.624Z,30.88
2023-05-01T11:46:43.298Z,32.96
2023-05-01T11:49:30.040Z,33.02
2023-05-01T11:52:16.809Z,33.05
2023-05-01T11:55:04.989Z,32.42
2023-05-01T11:57:53.132Z,32.43
2023-05-01T12:00:42.103Z,31.66
2023-05-01T12:03:29.401Z,32.31
2023-05-01T12:06:16.784Z,35.08
2023-05-01T12:09:04.243Z,32.22
2023-05-01T12:11:52.923Z,32.58
2023-05-01T12:14:41.244Z,33.02
2023-05-01T12:17:30.307Z,33.83
2023-05-01T12:20:17.278Z,32.79
2023-05-01T12:23:05.323Z,34.37
2023-05-01T12:25:52.529Z,32.74
2023-05-01T12:28:39.320Z,32.12
2023-05-01T12:31:26.994Z,31.21
2023-05-01T12:34:15.087Z,31.17
2023-05-01T12:37:03.492Z,31.62
2023-05-01T12:39:50.439Z,33.14
2023-05-01T12:42:37.458Z,31.11
2023-05-01T12:45:24.695Z,32.79
2023-05-01T12:48:14.951Z,31.60
2023-05-01T12:51:03.038Z,32.64
2023-05-01T12:53:50.586Z,32.38
2023-05-01T12:56:37.286Z,33.34
2023-05-01T12:59:25.498Z,31.86
2023-05-01T13:02:16.034Z,33.14
2023-05-01T13:05:08.375Z,31.62
2023-05-01T13:07:56.607Z,32.80
2023-05-01T13:10:44.192Z,32.62
2023-05-01T13:13:32.961Z,32.86
2023-05-01T13:16:20.524Z,32.32
2023-05-01T13:19:07.451Z,32.17
2023-05-01T13:21:53.920Z,31.61
2023-05-01T13:24:43.729Z,30.80
2023-05-01T13:27:30.779Z,29.69
2023-05-01T13:30:20.062Z,30.65
2023-05-01T13:33:07.966Z,30.47
2023-05-01T13:35:54.757Z,31.29
2023-05-01T13:38:45.998Z,30.64
2023-05-01T13:41:35.452Z,31.69
2023-05-01T13:44:23.638Z,31.13
2023-05-01T13:47:10.689Z,29.68
2023-05-01T13:49:57.646Z,31.71
2023-05-01T13:52:46.206Z,31.80
2023-05-01T13:55:33.095Z,33.44
2023-05-01T13:58:21.116Z,31.64
2023-05-01T14:01:20.837Z,30.14
2023-05-01T14:04:10.700Z,31.08
2023-05-01T14:06:58.557Z,30.68
2023-05-01T14:09:45.906Z,31.25
2023-05-01T14:12:33.404Z,32.13
2023-05-01T14:15:23.734Z,30.86
2023-05-01T14:18:12.155Z,31.81
2023-05-01T14:21:00.476Z,32.63
2023-05-01T14:23:47.249Z,32.75
2023-05-01T14:26:36.501Z,33.13
2023-05-01T14:29:28.073Z,30.98
2023-05-01T14:32:17.177Z,32.17
2023-05-01T14:35:10.067Z,30.89
2023-05-01T14:37:57.275Z,32.38
2023-05-01T14:40:45.397Z,31.54
2023-05-01T14:43:32.685Z,30.41
2023-05-01T14:46:28.920Z,30.09
2023-05-01T14:49:21.679Z,30.37
2023-05-01T14:52:09.407Z,30.32
2023-05-01T14:54:56.711Z,32.29
2023-05-01T14:57:45.630Z,32.78
2023-05-01T15:00:32.249Z,31.70
2023-05-01T15:03:19.125Z,31.84
2023-05-01T15:06:07.558Z,32.46
2023-05-01T15:08:54.264Z,34.83
2023-05-01T15:11:41.344Z,33.29
2023-05-01T15:14:28.082Z,31.34
2023-05-01T15:17:14.498Z,31.73
2023-05-01T15:20:01.221Z,32.63
2023-05-01T15:22:49.307Z,32.13
2023-05-01T15:25:36.004Z,32.19
2023-05-01T15:28:24.070Z,31.25
2023-05-01T15:31:10.717Z,31.85
2023-05-01T15:33:57.551Z,31.86
2023-05-01T15:36:43.864Z,33.00
2023-05-01T15:39:33.255Z,32.73
2023-05-01T15:42:20.000Z,32.01
2023-05-01T15:45:07.338Z,33.10
2023-05-01T15:47:54.702Z,34.35
2023-05-01T15:50:41.752Z,33.41
2023-05-01T15:53:28.118Z,33.71
2023-05-01T15:56:16.384Z,33.21
2023-05-01T15:59:04.212Z,32.65
2023-05-01T16:01:53.860Z,33.19
2023-05-01T16:04:40.102Z,33.01
2023-05-01T16:07:27.697Z,33.38
2023-05-01T16:10:14.464Z,34.16
2023-05-01T16:13:02.493Z,34.14
2023-05-01T16:15:49.277Z,35.67
2023-05-01T16:18:36.140Z,33.96
2023-05-01T16:21:22.628Z,35.23
2023-05-01T16:24:10.914Z,34.62
2023-05-01T16:26:57.652Z,34.46
2023-05-01T16:29:46.071Z,34.77
2023-05-01T16:32:32.621Z,35.43
2023-05-01T16:35:19.755Z,36.58
2023-05-01T16:38:06.715Z,35.15
2023-05-01T16:40:53.769Z,34.96
2023-05-01T16:43:40.233Z,34.60
2023-05-01T16:46:31.713Z,31.71
2023-05-01T16:49:18.869Z,32.66
2023-05-01T16:52:05.983Z,33.55
2023-05-01T16:54:54.431Z,32.81
2023-05-01T16:57:44.164Z,34.70
2023-05-01T17:00:31.454Z,33.00
2023-05-01T17:03:19.621Z,35.69
2023-05-01T17:06:06.360Z,34.22
2023-05-01T17:08:53.797Z,35.30
2023-05-01T17:11:40.981Z,36.69
2023-05-01T17:14:28.843Z,37.22
2023-05-01T17:17:17.678Z,37.08
2023-05-01T17:20:06.821Z,37.49
2023-05-01T17:22:53.774Z,39.63
2023-05-01T17:25:40.626Z,38.90
2023-05-01T17:28:27.390Z,40.11
2023-05-01T17:31:15.925Z,39.87
2023-05-01T17:34:04.185Z,40.70
2023-05-01T17:36:52.206Z,43.53
2023-05-01T17:39:39.443Z,38.96
2023-05-01T17:42:26.469Z,40.75
2023-05-01T17:45:13.404Z,39.82
2023-05-01T17:48:00.950Z,40.04
2023-05-01T17:50:47.548Z,40.36
2023-05-01T17:53:36.318Z,43.89
2023-05-01T17:56:23.179Z,42.33
2023-05-01T17:59:09.920Z,44.72
2023-05-01T18:01:57.123Z,45.80
2023-05-01T18:04:43.535Z,45.61
2023-05-01T18:07:31.224Z,45.36
2023-05-01T18:10:20.698Z,45.53
2023-05-01T18:13:07.489Z,44.86
2023-05-01T18:15:54.213Z,46.00
2023-05-01T18:18:41.189Z,49.04
2023-05-01T18:21:28.686Z,53.22
2023-05-01T18:24:15.369Z,50.48
2023-05-01T18:27:03.588Z,48.47
2023-05-01T18:29:50.530Z,48.35
2023-05-01T18:32:47.396Z,49.67
2023-05-01T18:35:34.914Z,50.49
2023-05-01T18:38:21.735Z,50.27
2023-05-01T18:41:08.492Z,50.54
2023-05-01T18:43:58.125Z,53.27
2023-05-01T18:46:45.181Z,51.01
2023-05-01T18:49:32.138Z,51.63
2023-05-01T18:52:18.931Z,54.45
2023-05-01T18:55:06.383Z,55.53
2023-05-01T18:57:53.155Z,52.17
2023-05-01T19:00:41.003Z,51.68
2023-05-01T19:03:42.835Z,53.48
2023-05-01T19:06:42.687Z,54.08
2023-05-01T19:09:53.184Z,54.78
2023-05-01T19:12:52.152Z,54.53
2023-05-01T19:15:52.376Z,57.96
2023-05-01T19:18:41.610Z,57.72
2023-05-01T19:21:33.468Z,59.22
2023-05-01T19:24:22.725Z,58.37
2023-05-01T19:27:12.911Z,58.79
2023-05-01T19:30:03.296Z,64.92
2023-05-01T19:32:58.399Z,60.99
2023-05-01T19:35:46.382Z,60.42
2023-05-01T19:38:34.776Z,60.34
2023-05-01T19:41:22.696Z,60.68
2023-05-01T19:44:12.057Z,62.43
2023-05-01T19:47:00.168Z,62.57
2023-05-01T19:49:52.458Z,63.81
2023-05-01T19:52:40.500Z,63.53
2023-05-01T19:55:28.254Z,66.41
2023-05-01T19:58:15.883Z,67.92
2023-05-01T20:01:14.609Z,63.39
2023-05-01T20:04:06.155Z,64.03
2023-05-01T20:06:55.701Z,65.43
2023-05-01T20:09:43.007Z,64.07
2023-05-01T20:12:30.778Z,65.52
2023-05-01T20:15:19.340Z,65.57
2023-05-01T20:18:06.230Z,67.09
2023-05-01T20:20:52.989Z,69.93
2023-05-01T20:23:41.348Z,69.70
2023-05-01T20:26:27.986Z,69.89
2023-05-01T20:29:14.694Z,70.08
2023-05-01T20:32:01.514Z,71.38
2023-05-01T20:34:48.294Z,70.49
2023-05-01T20:37:34.976Z,69.66
2023-05-01T20:40:23.080Z,70.28
2023-05-01T20:43:09.863Z,71.30
2023-05-01T20:45:56.573Z,75.54
2023-05-01T20:48:44.077Z,77.05
2023-05-01T20:51:32.175Z,78.59
2023-05-01T20:54:19.088Z,75.60
2023-05-01T20:57:07.465Z,78.03
2023-05-01T20:59:53.892Z,76.64
2023-05-01T21:02:41.252Z,79.84
2023-05-01T21:05:28.853Z,79.25
2023-05-01T21:08:15.823Z,78.54
2023-05-01T21:11:02.676Z,77.64
2023-05-01T21:13:50.693Z,77.29
2023-05-01T21:16:37.712Z,77.96
2023-05-01T21:19:24.249Z,79.40
2023-05-01T21:22:17.010Z,78.58
2023-05-01T21:25:03.663Z,79.51
2023-05-01T21:27:50.376Z,79.13
2023-05-01T21:30:38.743Z,79.92
2023-05-01T21:33:26.080Z,80.21
2023-05-01T21:36:15.011Z,78.78
2023-05-01T21:39:02.052Z,77.77
2023-05-01T21:41:49.569Z,77.14
2023-05-01T21:44:36.492Z,77.95
2023-05-01T21:47:24.768Z,77.88
2023-05-01T21:50:13.388Z,78.59
2023-05-01T21:53:00.635Z,80.61
2023-05-01T21:55:47.482Z,79.83
2023-05-01T21:58:34.277Z,79.38
2023-05-01T22:01:24.566Z,79.41
2023-05-01T22:04:18.390Z,79.35
2023-05-01T22:07:05.495Z,80.26
2023-05-01T22:09:52.031Z,78.36
2023-05-01T22:12:39.579Z,76.88
2023-05-01T22:15:27.373Z,76.23
2023-05-01T22:18:19.986Z,77.63
2023-05-01T22:21:09.585Z,77.58
2023-05-01T22:23:56.378Z,77.65
2023-05-01T22:26:43.055Z,78.26
2023-05-01T22:29:29.652Z,78.46
2023-05-01T22:32:16.420Z,79.33
2023-05-01T22:35:03.838Z,78.73
2023-05-01T22:37:51.911Z,79.73
2023-05-01T22:40:38.611Z,81.16
2023-05-01T22:43:25.533Z,88.33
2023-05-01T22:46:12.300Z,89.32
2023-05-01T22:49:01.333Z,87.22
2023-05-01T22:51:47.946Z,87.34
2023-05-01T22:54:36.261Z,86.53
2023-05-01T22:57:23.543Z,85.57
2023-05-01T23:00:13.896Z,84.84
2023-05-01T23:03:00.892Z,84.89
2023-05-01T23:05:47.770Z,84.75
2023-05-01T23:08:34.553Z,83.75
2023-05-01T23:11:23.638Z,83.85
2023-05-01T23:14:11.221Z,83.48
2023-05-01T23:16:59.111Z,83.52
2023-05-01T23:19:47.296Z,83.40
2023-05-01T23:22:36.265Z,83.90
2023-05-01T23:25:26.445Z,83.44
2023-05-01T23:28:21.168Z,84.38
2023-05-01T23:31:10.077Z,86.29
2023-05-01T23:33:56.996Z,85.45
2023-05-01T23:36:46.148Z,86.39
2023-05-01T23:39:32.638Z,86.42
2023-05-01T23:42:19.597Z,86.10
2023-05-01T23:45:09.471Z,85.34
2023-05-01T23:47:56.104Z,86.04
2023-05-01T23:50:42.784Z,87.53
2023-05-01T23:53:30.805Z,88.70
2023-05-01T23:56:21.533Z,89.08
2023-05-01T23:59:08.744Z,90.16
